Flight Track Log - Related Links

Times and Time Zones

All times are in EDT time to prevent confusion due to time zone crossing. See the AAY861 flight status page for this flight to view local times or setup timezone preferences in your user account.

Time Position Orientation Groundspeed Altitude Reporting Facility
EDT Latitude Longitude Course Direction KTS MPH feet Rate Location/Type
Fri 09:27:33 AM 37.8216 -84.7073 179° South 283 326 9,300  Level FlightAware ADS-B
Fri 09:28:01 AM 37.7886 -84.6940 161° South 300 345 10,400 2,098 Climbing FlightAware ADS-B
Fri 09:29:36 AM 37.6435 -84.6299 161° South 360 414 13,600 1,971 Climbing FlightAware ADS-B
Fri 09:30:21 AM 37.5710 -84.5986 161° South 360 414 15,000 977 Climbing FlightAware ADS-B
Fri 09:31:02 AM 37.5186 -84.5756 161° South 368 423 15,000  Level Indianapolis Center
Fri 09:32:04 AM 37.4169 -84.5328 162° South 379 436 15,000 927 Level Indianapolis Center
Fri 09:33:05 AM 37.2989 -84.4808 161° South 383 441 16,900 1,951 Climbing Indianapolis Center
Fri 09:34:07 AM 37.1950 -84.4369 161° South 388 447 19,000 1,887 Climbing Indianapolis Center
Fri 09:35:09 AM 37.0878 -84.3917 161° South 400 460 20,800 1,694 Climbing Indianapolis Center
Fri 09:36:11 AM 36.9786 -84.3444 161° South 410 472 22,500 1,548 Climbing Indianapolis Center
Fri 09:37:13 AM 36.8653 -84.2964 161° South 424 488 24,000 1,463 Climbing Indianapolis Center
Fri 09:38:14 AM 36.7500 -84.2475 161° South 430 495 25,500 1,659 Climbing Indianapolis Center
Fri 09:39:16 AM 36.6142 -84.1903 161° South 437 503 27,400 1,355 Climbing Indianapolis Center
Fri 09:40:18 AM 36.5014 -84.1433 161° South 442 509 28,300 1,113 Climbing Indianapolis Center
Fri 09:41:20 AM 36.3806 -84.0925 161° South 449 517 29,700 1,210 Climbing Indianapolis Center
Fri 09:42:22 AM 36.2592 -84.0419 161° South 452 520 30,800 1,113 Climbing Indianapolis Center
Fri 09:43:24 AM 36.1367 -84.0003 165° South 453 521 32,000 765 Climbing Indianapolis Center
Fri 09:48:23 AM 35.4753 -83.7757 164° South 436 502 35,400 721 Climbing FlightAware ADS-B (KDZJ)
Fri 09:49:05 AM 35.3918 -83.7476 164° South 432 497 36,100 1,084 Climbing FlightAware ADS-B (KDZJ)
Fri 09:49:46 AM 35.3127 -83.7206 164° South 434 499 36,900 684 Climbing FlightAware ADS-B (KDZJ)
Fri 09:50:24 AM 35.2376 -83.6954 165° South 436 502 37,000 74 Climbing FlightAware ADS-B (KDZJ)
Fri 09:51:07 AM 35.1538 -83.6676 165° South 435 501 37,000  Level FlightAware ADS-B (KDZJ)
Fri 09:51:48 AM 35.0736 -83.6408 165° South 436 502 37,000  Level FlightAware ADS-B (KDZJ)
Fri 09:52:27 AM 34.9970 -83.6153 165° South 436 502 37,000  Level FlightAware ADS-B (KDZJ)
Fri 09:53:08 AM 34.9189 -83.5892 165° South 437 503 37,000  Level FlightAware ADS-B (KDZJ)
Fri 09:53:48 AM 34.8404 -83.5630 164° South 431 496 37,000  Level FlightAware ADS-B (KDZJ)
Fri 09:54:28 AM 34.7613 -83.5368 165° South 432 497 37,000  Level FlightAware ADS-B (KDZJ)
Fri 09:55:06 AM 34.6858 -83.5118 165° South 433 498 37,000  Level FlightAware ADS-B (KDZJ)
Fri 09:55:47 AM 34.6054 -83.4851 165° South 434 499 37,000  Level FlightAware ADS-B (KDZJ)
Fri 09:56:23 AM 34.5339 -83.4615 165° South 434 499 37,000  Level FlightAware ADS-B (KDZJ)
Fri 09:57:07 AM 34.4477 -83.4331 165° South 433 498 37,000  Level FlightAware ADS-B (KDZJ)
Fri 09:57:47 AM 34.3685 -83.4071 165° South 433 498 37,000  Level FlightAware ADS-B (KDZJ)
Fri 09:58:18 AM 34.3075 -83.3871 165° South 433 498 37,000  Level FlightAware ADS-B (KDZJ)
Fri 09:59:03 AM 34.2186 -83.3581 165° South 433 498 37,000  Level FlightAware ADS-B (KDZJ)
Fri 09:59:47 AM 34.1700 -83.3433 165° South 435 501 37,000  Level Atlanta Center
Fri 10:00:47 AM 34.0531 -83.3042 164° South 435 501 37,000  Level Atlanta Center
Fri 10:01:47 AM 33.9336 -83.2653 165° South 435 501 37,000  Level Atlanta Center
Fri 10:02:47 AM 33.8375 -83.2336 165° South 440 506 37,000 150 Level Atlanta Center
Fri 10:03:47 AM 33.6911 -83.1875 165° South 440 506 37,300 450 Climbing Atlanta Center
Fri 10:04:47 AM 33.5739 -83.1486 165° South 440 506 37,900 350 Climbing Atlanta Center
Fri 10:05:47 AM 33.4547 -83.1125 166° South 440 506 38,000 50 Climbing Atlanta Center
Fri 10:06:47 AM 33.3375 -83.0742 165° South 440 506 38,000  Level Atlanta Center
Fri 10:07:47 AM 33.2142 -83.0381 166° South 433 498 38,000  Level Atlanta Center
Fri 10:08:47 AM 33.0989 -82.9972 163° South 438 504 38,000  Level Atlanta Center
Fri 10:09:47 AM 32.9756 -82.9592 165° South 445 512 38,000  Level Atlanta Center
Fri 10:10:47 AM 32.8542 -82.9211 165° South 445 512 38,000  Level Atlanta Center
Fri 10:12:59 AM 32.6008 -82.8408 165° South 452 520 38,000  Level Jacksonville Center
Fri 10:13:59 AM 32.4797 -82.8039 166° South 452 520 38,000  Level Jacksonville Center
Fri 10:14:59 AM 32.3628 -82.7647 164° South 445 512 38,000  Level Jacksonville Center
Fri 10:15:59 AM 32.2417 -82.7256 165° South 451 519 38,000  Level Jacksonville Center
Fri 10:16:59 AM 32.1183 -82.6889 166° South 451 519 38,000  Level Jacksonville Center
Fri 10:17:59 AM 31.9972 -82.6500 165° South 451 519 38,000  Level Jacksonville Center
Fri 10:18:59 AM 31.8781 -82.6111 165° South 456 525 38,000  Level Jacksonville Center
Fri 10:19:59 AM 31.7589 -82.5750 166° South 451 519 38,000  Level Jacksonville Center
Fri 10:20:59 AM 31.6381 -82.5875 185° South 445 512 38,000  Level Jacksonville Center
Fri 10:21:59 AM 31.5547 -82.6928 227° Southwest 406 467 38,000  Level Jacksonville Center
Fri 10:22:59 AM 31.4839 -82.8097 235° Southwest 406 467 38,000  Level Jacksonville Center
Fri 10:23:59 AM 31.4150 -82.9267 235° Southwest 428 493 38,000  Level Jacksonville Center
Fri 10:24:59 AM 31.3522 -83.0386 237° Southwest 441 507 38,000 -995 Level Jacksonville Center
Fri 10:31:01 AM 30.7630 -83.5287 199° South 444 511 31,000 -1,053 Descending FlightAware ADS-B (KONZ)
Fri 10:31:38 AM 30.6913 -83.5568 199° South 442 509 31,000  Level FlightAware ADS-B (KONZ)
Fri 10:32:17 AM 30.6202 -83.5848 199° South 441 507 31,000  Level FlightAware ADS-B (KONZ)
Fri 10:33:07 AM 30.5192 -83.6244 199° South 438 504 31,000  Level FlightAware ADS-B (KONZ)
Fri 10:33:49 AM 30.4391 -83.6557 199° South 440 506 31,000  Level FlightAware ADS-B (KONZ)
Fri 10:34:19 AM 30.3806 -83.6785 199° South 441 507 31,000  Level FlightAware ADS-B (KONZ)
Fri 10:34:55 AM 30.3223 -83.7013 199° South 440 506 31,000  Level FlightAware ADS-B (KONZ)
Fri 10:35:26 AM 30.2542 -83.7277 196° South 441 507 31,000  Level FlightAware ADS-B (KONZ)
Fri 10:35:58 AM 30.1850 -83.7347 178° South 451 519 31,000  Level FlightAware ADS-B (KONZ)
Fri 10:36:59 AM 30.0636 -83.7086 178° South 440 506 31,000 -50 Level Jacksonville Center
Fri 10:37:59 AM 29.9425 -83.6811 169° South 445 512 30,900 -50 Descending Jacksonville Center
Fri 10:38:59 AM 29.8194 -83.6514 168° South 445 512 30,900 -150 Level Jacksonville Center
Fri 10:39:59 AM 29.6925 -83.6242 169° South 450 518 30,600 -600 Descending Jacksonville Center
Fri 10:40:59 AM 29.5736 -83.5922 167° South 450 518 29,700 -1,150 Descending Jacksonville Center
Fri 10:41:59 AM 29.4483 -83.5650 169° South 450 518 28,300 -1,800 Descending Jacksonville Center
Fri 10:42:59 AM 29.3297 -83.5358 168° South 445 512 26,100 -2,200 Descending Jacksonville Center
Fri 10:43:59 AM 29.2128 -83.5064 168° South 440 506 23,900 -1,800 Descending Jacksonville Center
Fri 10:44:59 AM 29.1131 -83.4439 151° Southeast 421 484 22,500 -1,400 Descending Jacksonville Center
Fri 10:45:59 AM 29.0214 -83.3842 150° Southeast 398 458 21,100 -1,550 Descending Jacksonville Center
Fri 10:46:59 AM 28.9256 -83.3386 157° South 383 441 19,400 -1,850 Descending Jacksonville Center
Fri 10:47:59 AM 28.8253 -83.3594 190° South 355 409 17,400 -2,000 Descending Jacksonville Center
Fri 10:48:59 AM 28.7269 -83.3781 189° South 355 409 15,400 -1,850 Descending Jacksonville Center
Fri 10:49:59 AM 28.6331 -83.3942 189° South 355 409 13,700 -1,467 Descending Jacksonville Center
Fri 10:51:59 AM 28.4589 -83.4214 188° South 327 376 11,000 -885 Descending Miami Center
Fri 10:53:02 AM 28.3708 -83.4142 176° South 324 373 11,000  Level Miami Center
Fri 10:54:04 AM 28.2678 -83.3989 173° South 328 377 11,000  Level Miami Center
Fri 10:55:06 AM 28.1792 -83.3836 171° South 327 376 11,000 -97 Level Miami Center
Fri 10:56:08 AM 28.0894 -83.3708 173° South 326 375 10,800 -432 Descending Miami Center
Fri 10:57:11 AM 28.0036 -83.3569 172° South 319 367 10,100 -384 Descending Miami Center
Fri 10:58:13 AM 27.9247 -83.3428 171° South 297 342 10,000 -339 Descending Miami Center
Fri 10:59:15 AM 27.8864 -83.2453 114° Southeast 306 352 9,400 -1,065 Descending Miami Center
Fri 11:00:17 AM 27.9175 -83.1528 69° East 311 358 7,800 -1,200 Descending Miami Center
Fri 11:01:20 AM 27.9522 -83.0633 66° East 311 358 6,900 -384 Descending Miami Center
Fri 11:02:22 AM 27.9878 -82.9722 66° East 311 358 7,000 48 Climbing Miami Center
Fri 11:03:24 AM 27.9403 -82.9092 130° Southeast 287 330 7,000  Level Miami Center
Fri 11:04:27 AM 27.8792 -82.9719 222° Southwest 257 296 7,000  Level Miami Center
Fri 11:05:29 AM 27.8111 -82.9758 183° South 265 305 7,000  Level Miami Center
Fri 11:06:31 AM 27.7539 -82.9122 135° Southeast 290 334 7,000  Level Miami Center
Fri 11:07:12 AM 27.7000 -82.8667 143° Southeast 291 335 7,000  Level Tampa TRACON
Fri 11:08:06 AM 27.6500 -82.8167 138° Southeast 286 329 7,000  Level Tampa TRACON
Fri 11:09:38 AM 27.5464 -82.7533 152° Southeast 282 325 7,000  Level Miami Center
Fri 11:10:40 AM 27.4867 -82.6928 138° Southeast 292 336 7,000 -48 Level Miami Center
Fri 11:11:42 AM 27.4389 -82.6203 127° Southeast 292 336 6,900 -587 Descending Miami Center
Fri 11:12:12 AM 27.4167 -82.5667 115° Southeast 290 334 6,100 -1,357 Descending Tampa TRACON
Fri 11:13:06 AM 27.3667 -82.5167 138° Southeast 288 331 5,000 -678 Descending Tampa TRACON
Fri 11:14:07 AM 27.3167 -82.4333 124° Southeast 286 329 4,800 -893 Descending Tampa TRACON
Fri 11:15:07 AM 27.2833 -82.3667 119° Southeast 276 318 3,200 -1,096 Descending Tampa TRACON
Fri 11:15:51 AM 27.2472 -82.3189 130° Southeast 279 321 2,900 -168 Descending Miami Center
Fri 11:16:54 AM 27.2028 -82.2506 126° Southeast 277 319 2,900  Level Miami Center
Fri 11:17:56 AM 27.1586 -82.1814 126° Southeast 276 318 2,900  Level Miami Center
Fri 11:18:58 AM 27.1194 -82.1189 125° Southeast 250 288 2,900 -290 Level Miami Center
Fri 11:20:00 AM 27.0750 -82.0500 126° Southeast 234 269 2,300 -432 Descending Miami Center
Fri 11:21:03 AM 27.0403 -81.9969 126° Southeast 216 249 2,000 -240 Descending Miami Center
Fri 11:22:05 AM 26.9997 -81.9531 136° Southeast 189 217 1,800 -532 Descending Miami Center
Fri 11:23:07 AM 26.9617 -81.9600 189° South 145 167 900 -768 Descending Miami Center
Fri 11:24:10 AM 26.9264 -81.9811 208° Southwest 133 153 200 -667 Descending Miami Center

Login

Don't have an account? Register now (free) for customized features, flight alerts, and more!